Portada
METAR-TAF:

METAR-TAF

Aeroports :

Loei, Tailàndia

latitud: 17-27N, longitud: 101-44E, altitud: 253 m

Observació

L'informe es va fer fa 4 hores i 18 minuts, a les 12:00 UTC
Vent 7 kt del Nord
Temperatura 30°C
Humitat 66%
Pressió 1004 hPa
Visibilitat 10 km o més
Cel ennuvolat a una alçada de 3000 ft

METAR: VTUL 241200Z 35007KT 9999 BKN030 30/23 Q1004 NOSIG

Hora: 23:18 (16:18 UTC)

Pronòstic

L'informe es va fer fa 5 hores i 18 minuts, a les 11:00 UTC
Pronòstic vàlid del 24 a les 12 UTC al 25 a les 12 UTC
Vent 5 kt del Oest
Visibilitat: 9000 m
Núvols disperses a una alçada de 3000 ft
Temporalment
l' 25 a les 06 UTC al 25 a les 12 UTC
Vent 15 kt amb direcció variable
Visibilitat: 4000 m
Escasses núvols a una alçada de 1800 ft, Cumulonimbus.
Cel ennuvolat a una alçada de 2000 ft
Cel ennuvolat a una alçada de 8000 ft
tempesta, pluja

TAF: VTUL 241100Z 2412/2512 26005KT 9000 SCT030 TEMPO 2506/2512 VRB15KT 4000 TSRA FEW018CB BKN020 BKN080

Observacions i pronòstics meteorològics de més de 4000 aeroports (METAR i TAF).

Les estacions disponibles són els punts grocs i vermells al mapa.

Posi el ratolí al punt desitjat per veure el nom de l'estació.

Feu clic per veure les observacions i els pronòstics meteorològics.

Per canviar el mapa: feu clic els botons verds amb una creu de color negre per apropar; al botó verd amb un guió per allunyar la imatge; o en les fletxes verdes per a mapes adjacents.


METAR-TAF: